In Rescue
 
Open Full Screen Window  High Contrast Mode
Wind Gusting 21 knots
15
October 25, 2021 4:10 PM EDT
Weather Information
Wind Direction
  040 °
Wind Speed
  15 kt (17 mph)
Wind Gust
  21 kt (24 mph)
Altimeter
29.71 in
Visibility
10 SM
Temperature
10° C
50° F
Dewpoint
08° C
46° F
Humidity
88%
1hr Rain Fall
00.03 in.
24hr Rain Fall
01.52 in.
Sky Condition
Overcast @ 1,200 ft
MVFR

METAR KONZ 252010Z AUTO 04015G21KT 10SM OVC012 10/08 A2971 RMK AO2 T01010083 P0003

FAA Disclaimer: The data displayed is for advisory purposes only and is not to be used for flight planning or operations.